Latest Weather Observations for Friendly Beaches

IDT60801

Issued at 11:01 pm EDT Monday 8 February 2016 (issued every 30 minutes, with the page automatically refreshed every 10 minutes)

About weather observations | Map of weather stations | Latest weather observations for TAS | Other Formats
Station Details ID: 092114 Name: FRIENDLY BEACHES Lat: -42.00 Lon: 148.28 Height: 55.0 m
Data from the previous 72 hours. | See also: Recent months at Friendly Beaches
Date/Time
EDT
Temp
°C
App
Temp
°C
Dew
Point
Rel
Hum
%
Delta-T
°C
Wind Press
QNH
hPa
Press
MSL
hPa
Rain
since 9 am
mm
Dir
 
Spd
km/h
Gust
km/h
Spd
kts
Gust
kts
08/11:00pm 18.7 18.8 14.0 74 2.7 NE 6 9 3 5 1020.9 1020.7 0.0
08/10:30pm 19.0 19.0 14.1 73 2.8 ENE 7 11 4 6 1021.0 1020.8 0.0
08/10:00pm 19.0 18.6 14.1 73 2.8 E 9 13 5 7 1021.0 1020.8 0.0
08/09:30pm 19.0 18.4 14.5 75 2.6 ESE 11 15 6 8 1020.7 1020.5 0.0
08/09:00pm 18.8 17.8 14.5 76 2.5 ESE 13 19 7 10 1020.1 1019.9 0.0
08/08:30pm 18.8 17.4 14.5 76 2.5 ESE 15 20 8 11 1019.7 1019.6 0.0
08/08:00pm 19.4 18.1 14.9 75 2.6 ESE 15 19 8 10 1019.6 1019.5 0.0
08/07:30pm 19.6 17.5 14.8 74 2.8 SE 19 26 10 14 1019.0 1018.9 0.0
08/07:00pm 20.0 18.3 14.8 72 3.0 SE 17 22 9 12 1018.8 1018.7 0.0
08/06:30pm 20.9 19.3 15.0 69 3.5 ESE 17 22 9 12 1018.5 1018.4 0.0
08/06:00pm 22.9 21.5 15.5 63 4.4 ESE 17 20 9 11 1018.2 1018.1 0.0
08/05:30pm 22.8 21.5 15.9 65 4.2 ESE 17 22 9 12 1018.1 1018.0 0.0
08/05:00pm 23.5 22.2 15.8 62 4.7 ESE 17 22 9 12 1018.1 1018.0 0.0
08/04:30pm 24.9 24.3 16.6 60 5.1 E 15 20 8 11 1017.9 1017.8 0.0
08/04:00pm 24.3 23.6 16.3 61 4.9 E 15 20 8 11 1017.7 1017.6 0.0
08/03:30pm 24.5 23.3 16.0 59 5.2 E 17 20 9 11 1017.7 1017.6 0.0
08/03:00pm 25.0 24.8 16.7 60 5.1 E 13 20 7 11 1017.6 1017.5 0.0
08/02:30pm 25.1 23.9 16.0 57 5.6 ESE 17 22 9 12 1017.7 1017.6 0.0
08/02:00pm 25.2 23.6 16.1 57 5.6 ESE 19 22 10 12 1017.7 1017.6 0.0
08/01:30pm 25.9 24.5 17.0 58 5.5 SE 20 26 11 14 1017.6 1017.5 0.0
08/01:00pm 26.2 24.9 17.3 58 5.6 SE 20 28 11 15 1017.4 1017.3 0.0
08/12:30pm 25.5 23.8 17.2 60 5.2 SE 22 28 12 15 1017.4 1017.3 0.0
08/12:00pm 25.8 25.4 14.0 48 7.0 SSE 9 15 5 8 1017.4 1017.3 0.0
08/11:30am 25.2 24.6 13.4 48 6.9 SW 9 19 5 10 1017.5 1017.4 0.0
08/11:00am 24.7 23.4 13.6 50 6.5 SW 13 24 7 13 1017.7 1017.6 0.0
08/10:30am 23.9 22.2 13.7 53 6.0 SSW 15 30 8 16 1018.0 1017.9 0.0
08/10:00am 23.6 22.6 14.6 57 5.3 SW 13 20 7 11 1017.8 1017.7 0.0
08/09:30am 22.4 21.9 15.0 63 4.4 SSW 11 19 6 10 1017.9 1017.8 0.0
08/09:00am 21.5 21.5 15.1 67 3.8 WSW 9 13 5 7 1018.0 1017.9 0.0
08/08:30am 20.8 21.0 15.8 73 3.0 W 9 15 5 8 1017.8 1017.7 0.0
08/08:00am 19.3 19.4 15.6 79 2.2 W 9 15 5 8 1017.6 1017.5 0.0
08/07:30am 17.7 18.1 15.3 86 1.4 W 7 11 4 6 1017.5 1017.4 0.0
08/07:00am 16.5 16.8 14.9 90 0.9 WNW 7 11 4 6 1017.2 1017.1 0.0
08/06:30am 16.4 16.6 14.8 90 0.9 W 7 9 4 5 1017.0 1016.9 0.0
08/06:00am 16.8 17.1 14.6 87 1.3 WNW 6 7 3 4 1016.8 1016.7 0.0
08/05:30am 17.5 17.3 14.8 84 1.6 WSW 9 13 5 7 1016.7 1016.6 0.0
08/05:00am 17.2 17.3 15.4 89 1.1 WNW 9 13 5 7 1016.4 1016.3 0.0
08/04:30am 17.6 18.0 15.4 87 1.3 WNW 7 9 4 5 1016.4 1016.3 0.0
08/04:00am 17.6 18.3 15.6 88 1.2 WNW 6 7 3 4 1016.7 1016.6 0.0
08/03:30am 17.2 17.6 15.2 88 1.2 WNW 7 9 4 5 1016.7 1016.6 0.0
08/03:00am 17.1 17.1 15.1 88 1.2 WNW 9 11 5 6 1016.9 1016.8 0.0
08/02:30am 17.3 17.2 14.9 86 1.4 WNW 9 13 5 7 1016.9 1016.8 0.0
08/02:00am 17.3 17.1 14.8 85 1.4 WNW 9 13 5 7 1017.0 1016.9 0.0
08/01:30am 17.2 17.1 15.0 87 1.3 WNW 9 13 5 7 1017.0 1016.9 0.0
08/01:00am 17.3 17.6 14.9 86 1.4 W 7 11 4 6 1017.1 1017.0 0.0
08/12:30am 17.2 17.4 14.8 86 1.4 WNW 7 11 4 6 1017.2 1017.1 0.0
08/12:00am 17.8 19.5 15.1 84 1.6 CALM 0 0 0 0 1017.3 1017.2 0.0
 
Date/Time
EDT
Temp
°C
App
Temp
°C
Dew
Point
Rel
Hum
%
Delta-T
°C
Wind Press
QNH
hPa
Press
MSL
hPa
Rain
since 9 am
mm
Dir
 
Spd
km/h
Gust
km/h
Spd
kts
Gust
kts
07/11:30pm 18.3 19.8 15.6 84 1.6 NW 2 6 1 3 1017.3 1017.2 0.0
07/11:00pm 18.3 18.7 15.4 83 1.7 NNE 7 13 4 7 1017.2 1017.1 0.0
07/10:30pm 18.4 18.7 14.9 80 2.0 NNE 7 11 4 6 1017.5 1017.4 0.0
07/10:00pm 18.9 18.7 14.6 76 2.5 NNE 9 13 5 7 1017.6 1017.5 0.0
07/09:30pm 19.3 18.2 14.3 73 2.9 N 13 20 7 11 1017.4 1017.3 0.0
07/09:00pm 19.3 19.3 14.1 72 3.0 NNE 7 15 4 8 1017.1 1017.0 0.0
07/08:30pm 19.7 18.9 14.1 70 3.2 N 11 20 6 11 1016.9 1016.8 0.0
07/08:00pm 20.5 20.0 13.9 66 3.8 NNE 9 13 5 7 1016.8 1016.7 0.0
07/07:30pm 21.4 21.0 14.1 63 4.3 NNE 9 19 5 10 1016.4 1016.3 0.0
07/07:00pm 22.3 21.2 14.2 60 4.7 NNE 13 19 7 10 1016.5 1016.4 0.0
07/06:30pm 23.1 21.2 14.1 57 5.3 NNE 17 24 9 13 1016.4 1016.3 0.0
07/06:00pm 24.4 23.6 15.1 56 5.6 NNE 13 22 7 12 1016.6 1016.5 0.0
07/05:30pm 24.6 22.5 14.7 54 5.9 NNE 19 24 10 13 1016.5 1016.4 0.0
07/05:00pm 25.0 22.8 14.5 52 6.3 NNE 19 28 10 15 1016.4 1016.3 0.0
07/04:30pm 25.3 23.1 14.4 50 6.5 NNE 19 28 10 15 1016.6 1016.5 0.0
07/04:00pm 25.7 24.0 14.8 51 6.5 NNE 17 28 9 15 1016.6 1016.5 0.0
07/03:30pm 26.4 24.9 15.4 50 6.7 NNE 17 26 9 14 1016.6 1016.5 0.0
07/03:00pm 25.9 24.3 15.0 51 6.6 NNE 17 26 9 14 1016.8 1016.7 0.0
07/02:30pm 26.5 24.4 15.2 49 6.9 NNE 20 30 11 16 1016.8 1016.7 0.0
07/02:00pm 25.9 23.1 14.4 49 6.9 NNE 22 32 12 17 1016.9 1016.8 0.0
07/01:30pm 26.4 24.3 14.8 49 7.0 NNE 19 30 10 16 1017.1 1017.0 0.0
07/01:00pm 25.8 23.3 14.0 48 7.0 NE 20 28 11 15 1017.3 1017.2 0.0
07/12:30pm 26.2 24.6 15.0 50 6.8 NE 17 26 9 14 1017.4 1017.3 0.0
07/12:00pm 25.6 23.3 14.1 49 6.8 NNE 19 28 10 15 1017.5 1017.4 0.0
07/11:30am 24.4 21.9 14.2 53 6.0 NNE 20 28 11 15 1017.8 1017.7 0.0
07/11:00am 24.3 21.9 13.8 52 6.2 NE 19 30 10 16 1017.8 1017.7 0.0
07/10:30am 24.0 22.6 14.4 55 5.7 NE 15 22 8 12 1018.0 1017.9 0.0
07/10:00am 23.2 22.2 14.5 58 5.1 ENE 13 20 7 11 1018.1 1018.0 0.0
07/09:30am 22.1 21.9 12.9 56 5.3 NNW 6 13 3 7 1018.2 1018.1 0.0
07/09:00am 20.9 20.2 13.1 61 4.4 NW 9 17 5 9 1018.5 1018.4 0.0
07/08:30am 19.2 20.6 14.5 74 2.7 CALM 0 0 0 0 1018.5 1018.4 0.0
07/08:00am 18.9 20.2 14.0 73 2.8 CALM 0 0 0 0 1018.3 1018.2 0.0
07/07:30am 18.4 19.6 13.9 75 2.6 CALM 0 4 0 2 1018.2 1018.1 0.0
07/07:00am 18.1 18.4 13.4 74 2.7 NNW 4 9 2 5 1017.8 1017.7 0.0
07/06:30am 17.9 17.1 13.0 73 2.8 NNW 9 13 5 7 1017.5 1017.4 0.0
07/06:00am 18.1 18.0 13.2 73 2.8 N 6 11 3 6 1017.3 1017.2 0.0
07/05:30am 18.2 18.5 13.5 74 2.7 NNE 4 9 2 5 1017.0 1016.9 0.0
07/05:00am 18.3 18.1 13.6 74 2.7 NNE 7 13 4 7 1016.8 1016.7 0.0
07/04:30am 18.7 18.2 13.8 73 2.8 N 9 11 5 6 1017.0 1016.9 0.0
07/04:00am 18.7 18.6 13.8 73 2.8 N 7 11 4 6 1017.2 1017.1 0.0
07/03:30am 18.5 18.6 14.0 75 2.6 N 6 7 3 4 1017.2 1017.1 0.0
07/03:00am 18.4 18.2 13.7 74 2.7 NNW 7 11 4 6 1017.3 1017.2 0.0
07/02:30am 18.4 18.2 13.7 74 2.7 NNW 7 13 4 7 1017.2 1017.1 0.0
07/02:00am 18.4 17.1 13.7 74 2.7 NNW 13 20 7 11 1017.3 1017.2 0.0
07/01:30am 18.3 17.0 13.8 75 2.6 N 13 22 7 12 1017.3 1017.2 0.0
07/01:00am 18.3 16.2 13.6 74 2.7 N 17 26 9 14 1017.4 1017.3 0.0
07/12:30am 18.3 16.7 14.0 76 2.5 N 15 24 8 13 1017.6 1017.5 0.0
07/12:00am 18.3 17.1 14.0 76 2.5 N 13 22 7 12 1017.7 1017.6 0.0
 
Date/Time
EDT
Temp
°C
App
Temp
°C
Dew
Point
Rel
Hum
%
Delta-T
°C
Wind Press
QNH
hPa
Press
MSL
hPa
Rain
since 9 am
mm
Dir
 
Spd
km/h
Gust
km/h
Spd
kts
Gust
kts
06/11:30pm 18.4 16.5 14.3 77 2.4 N 17 24 9 13 1017.7 1017.6 0.0
06/11:00pm 18.5 16.8 14.8 79 2.2 N 17 24 9 13 1018.0 1017.9 0.0
06/10:30pm 18.7 16.6 14.6 77 2.4 N 19 32 10 17 1018.2 1018.1 0.0
06/10:00pm 18.8 16.6 14.5 76 2.5 N 19 30 10 16 1018.2 1018.1 0.0
06/09:30pm 18.8 16.4 14.5 76 2.5 NNE 20 32 11 17 1017.8 1017.7 0.0
06/09:00pm 18.8 16.4 13.9 73 2.8 NNE 19 32 10 17 1017.7 1017.6 0.0
06/08:30pm 19.1 16.7 13.9 72 3.0 NNE 19 28 10 15 1017.8 1017.7 0.0
06/08:00pm 19.5 16.7 14.3 72 3.0 NNE 22 37 12 20 1017.6 1017.5 0.0
06/07:30pm 20.3 17.3 14.9 71 3.2 NNE 24 41 13 22 1017.7 1017.6 0.0
06/07:00pm 21.1 18.6 15.2 69 3.5 NNE 22 37 12 20 1017.7 1017.6 0.0
06/06:30pm 21.8 19.2 15.9 69 3.6 NNE 24 39 13 21 1017.6 1017.5 0.0
06/06:00pm 22.4 19.2 15.3 64 4.2 NNE 26 37 14 20 1017.6 1017.5 0.0
06/05:30pm 23.2 20.2 15.8 63 4.5 NNE 26 39 14 21 1017.8 1017.7 0.0
06/05:00pm 23.6 20.8 15.4 60 4.9 NNE 24 39 13 21 1018.0 1017.9 0.0
06/04:30pm 24.0 21.4 16.0 61 4.9 NNE 24 39 13 21 1018.2 1018.1 0.0
06/04:00pm 24.1 21.4 15.6 59 5.1 NNE 24 39 13 21 1018.3 1018.2 0.0
06/03:30pm 24.6 22.3 15.8 58 5.3 NE 22 35 12 19 1018.6 1018.5 0.0
06/03:00pm 24.7 22.6 15.3 56 5.7 NE 20 33 11 18 1018.8 1018.7 0.0
06/02:30pm 25.0 23.4 16.4 59 5.3 NE 20 33 11 18 1019.1 1019.0 0.0
06/02:00pm 24.6 22.0 15.8 58 5.3 NE 24 37 13 20 1019.5 1019.4 0.0
06/01:30pm 24.7 22.6 15.3 56 5.7 NE 20 32 11 17 1019.8 1019.7 0.0
06/01:00pm 25.2 23.2 15.5 55 5.9 NE 20 33 11 18 1020.2 1020.0 0.0
06/12:30pm 25.2 23.2 15.5 55 5.9 NE 20 33 11 18 1020.3 1020.1 0.0
06/12:00pm 24.2 22.0 14.9 56 5.5 NE 20 30 11 16 1020.8 1020.6 0.0
06/11:30am 24.0 22.9 15.2 58 5.3 ENE 15 22 8 12 1021.1 1020.9 0.0
06/11:00am 23.6 21.9 14.6 57 5.3 NE 17 24 9 13 1021.3 1021.1 0.0
06/10:30am 22.9 21.3 13.9 57 5.3 NE 15 24 8 13 1021.4 1021.2 0.0
06/10:00am 21.4 20.8 14.6 65 4.0 N 11 20 6 11 1021.6 1021.4 0.0
06/09:30am 19.8 19.6 13.5 67 3.6 NNE 7 9 4 5 1021.8 1021.6 0.0
06/09:00am 19.1 19.2 12.6 66 3.6 NNW 4 6 2 3 1021.8 1021.6 0.0
06/08:30am 18.5 18.6 12.7 69 3.3 NW 4 6 2 3 1021.6 1021.4 0.0
06/08:00am 18.1 17.8 12.8 71 3.0 NNW 6 9 3 5 1021.2 1021.0 0.0
06/07:30am 17.5 17.0 12.8 74 2.6 NW 7 11 4 6 1021.0 1020.8 0.0
06/07:00am 17.6 17.4 12.9 74 2.6 NNW 6 9 3 5 1020.9 1020.7 0.0
06/06:30am 17.6 17.5 13.3 76 2.4 NNW 6 9 3 5 1020.7 1020.5 0.0
06/06:00am 17.5 17.4 13.4 77 2.3 NNW 6 9 3 5 1020.6 1020.4 0.0
06/05:30am 17.6 17.4 13.1 75 2.5 N 6 9 3 5 1020.7 1020.5 0.0
06/05:00am 17.6 17.5 13.3 76 2.4 N 6 13 3 7 1020.8 1020.6 0.0
06/04:30am 17.6 17.6 13.7 78 2.2 N 6 9 3 5 1020.9 1020.7 0.0
06/04:00am 17.5 17.4 13.8 79 2.1 NE 7 11 4 6 1021.1 1020.9 0.0
06/03:30am 17.2 17.1 13.9 81 1.9 ENE 7 9 4 5 1021.5 1021.3 0.0
06/03:00am 16.5 16.4 13.2 81 1.8 ENE 6 7 3 4 1021.8 1021.6 0.0
06/02:30am 16.9 16.6 13.2 79 2.1 ENE 7 9 4 5 1022.1 1021.9 0.0
06/02:00am 17.3 17.0 13.4 78 2.2 ENE 7 11 4 6 1022.5 1022.4 0.0
06/01:30am 17.4 16.8 13.5 78 2.2 E 9 13 5 7 1022.7 1022.6 0.0
06/01:00am 17.6 17.4 13.5 77 2.3 E 7 11 4 6 1023.1 1023.0 0.0
06/12:30am 17.8 17.2 13.5 76 2.4 E 9 13 5 7 1023.4 1023.3 0.0
06/12:00am 18.0 17.5 13.9 77 2.3 ESE 9 13 5 7 1023.6 1023.5 0.0
 
Date/Time
EDT
Temp
°C
App
Temp
°C
Dew
Point
Rel
Hum
%
Delta-T
°C
Wind Press
QNH
hPa
Press
MSL
hPa
Rain
since 9 am
mm
Dir
 
Spd
km/h
Gust
km/h
Spd
kts
Gust
kts
05/11:30pm 18.1 18.0 14.0 77 2.3 ESE 7 13 4 7 1023.7 1023.6 0.0

Other Formats:

Comma delimited format used in spreadsheet applications
http://www.bom.gov.au/fwo/IDT60801/IDT60801.94987.axf

JavaScript Object Notation format (JSON) in row-major order
http://www.bom.gov.au/fwo/IDT60801/IDT60801.94987.json